createdAt,value
2023-02-22T00:01:35.739Z,72.23
2023-02-22T00:07:01.185Z,72.64
2023-02-22T00:12:22.929Z,72.78
2023-02-22T00:17:45.144Z,73.44
2023-02-22T00:23:09.325Z,73.22
2023-02-22T00:28:31.049Z,72.83
2023-02-22T00:33:52.723Z,72.35
2023-02-22T00:39:14.581Z,73.79
2023-02-22T00:44:36.281Z,73.65
2023-02-22T00:49:58.019Z,74.32
2023-02-22T00:55:26.435Z,73.63
2023-02-22T01:00:48.787Z,74.48
2023-02-22T01:06:10.530Z,73.72
2023-02-22T01:11:32.234Z,74.72
2023-02-22T01:16:55.210Z,75.99
2023-02-22T01:22:16.981Z,76.06
2023-02-22T01:27:38.954Z,74.92
2023-02-22T01:33:02.329Z,76.09
2023-02-22T01:38:24.003Z,77.02
2023-02-22T01:43:45.857Z,75.67
2023-02-22T01:49:09.744Z,75.47
2023-02-22T01:54:35.940Z,74.65
2023-02-22T02:00:09.771Z,75.29
2023-02-22T02:05:34.195Z,76.20
2023-02-22T02:10:57.991Z,76.21
2023-02-22T02:16:21.471Z,76.61
2023-02-22T02:22:09.308Z,76.68
2023-02-22T02:27:50.903Z,76.89
2023-02-22T02:33:29.565Z,76.99
2023-02-22T02:39:19.474Z,77.25
2023-02-22T02:44:48.618Z,77.24
2023-02-22T02:50:16.065Z,79.27
2023-02-22T02:55:37.877Z,78.64
2023-02-22T03:01:04.359Z,78.65
2023-02-22T03:06:47.923Z,78.28
2023-02-22T03:12:27.617Z,77.65
2023-02-22T03:18:17.719Z,78.35
2023-02-22T03:23:59.369Z,78.28
2023-02-22T03:29:24.626Z,78.62
2023-02-22T03:34:53.008Z,79.15
2023-02-22T03:40:25.901Z,79.94
2023-02-22T03:45:50.536Z,78.96
2023-02-22T03:51:17.365Z,77.98
2023-02-22T03:56:49.976Z,78.32
2023-02-22T04:02:11.697Z,78.72
2023-02-22T04:07:33.449Z,78.73
2023-02-22T04:12:55.181Z,79.18
2023-02-22T04:18:16.870Z,78.15
2023-02-22T04:23:38.548Z,78.83
2023-02-22T04:29:00.246Z,79.66
2023-02-22T04:34:21.964Z,78.88
2023-02-22T04:39:43.719Z,78.81
2023-02-22T04:45:07.973Z,78.56
2023-02-22T04:50:29.750Z,78.83
2023-02-22T04:55:51.462Z,79.38
2023-02-22T05:01:14.631Z,79.10
2023-02-22T05:06:36.553Z,78.36
2023-02-22T05:11:58.212Z,78.19
2023-02-22T05:17:19.884Z,79.72
2023-02-22T05:22:41.552Z,80.39
2023-02-22T05:28:08.802Z,79.96
2023-02-22T05:33:30.516Z,79.18
2023-02-22T05:38:52.196Z,79.59
2023-02-22T05:44:13.999Z,78.53
2023-02-22T05:49:35.668Z,79.42
2023-02-22T05:54:57.480Z,78.98
2023-02-22T06:00:23.120Z,79.49
2023-02-22T06:05:44.813Z,79.20
2023-02-22T06:11:06.579Z,78.53
2023-02-22T06:16:28.307Z,78.57
2023-02-22T06:21:59.875Z,79.12
2023-02-22T06:27:21.551Z,79.33
2023-02-22T06:32:43.301Z,79.75
2023-02-22T06:38:04.990Z,78.83
2023-02-22T06:43:26.695Z,78.85
2023-02-22T06:48:49.985Z,78.89
2023-02-22T06:54:11.852Z,78.70
2023-02-22T06:59:33.532Z,79.71
2023-02-22T07:04:55.241Z,79.07
2023-02-22T07:10:24.690Z,78.16
2023-02-22T07:15:46.459Z,78.34
2023-02-22T07:21:08.127Z,77.94
2023-02-22T07:26:29.901Z,77.67
2023-02-22T07:31:51.704Z,77.35
2023-02-22T07:37:13.454Z,76.84
2023-02-22T07:43:08.426Z,76.49
2023-02-22T07:48:31.442Z,75.86
2023-02-22T07:53:53.187Z,76.22
2023-02-22T07:59:16.334Z,75.02
2023-02-22T08:04:39.357Z,75.39
2023-02-22T08:10:01.111Z,73.27
2023-02-22T08:15:23.550Z,72.73
2023-02-22T08:20:47.321Z,73.39
2023-02-22T08:26:15.467Z,72.78
2023-02-22T08:31:37.237Z,72.75
2023-02-22T08:36:59.042Z,72.84
2023-02-22T08:42:20.757Z,74.11
2023-02-22T08:47:43.206Z,73.78
2023-02-22T08:53:05.717Z,72.36
2023-02-22T08:58:27.454Z,72.39
2023-02-22T09:03:49.203Z,70.94
2023-02-22T09:09:10.976Z,70.18
2023-02-22T09:14:32.664Z,69.82
2023-02-22T09:19:54.723Z,70.05
2023-02-22T09:25:20.374Z,69.91
2023-02-22T09:30:43.052Z,69.13
2023-02-22T09:36:06.852Z,68.63
2023-02-22T09:41:46.178Z,68.68
2023-02-22T09:47:18.064Z,68.06
2023-02-22T09:52:48.221Z,67.25
2023-02-22T09:58:35.094Z,66.42
2023-02-22T10:04:45.378Z,65.94
2023-02-22T10:10:13.751Z,65.85
2023-02-22T10:15:54.330Z,65.82
2023-02-22T10:21:37.336Z,65.19
2023-02-22T10:27:00.869Z,64.65
2023-02-22T10:32:31.096Z,64.21
2023-02-22T10:37:59.139Z,63.80
2023-02-22T10:43:20.914Z,62.85
2023-02-22T10:48:47.085Z,63.20
2023-02-22T10:54:33.458Z,62.04
2023-02-22T10:59:57.515Z,62.16
2023-02-22T11:05:37.177Z,61.52
2023-02-22T11:11:18.851Z,61.37
2023-02-22T11:16:49.565Z,61.09
2023-02-22T11:22:22.288Z,62.07
2023-02-22T11:27:46.920Z,61.21
2023-02-22T11:33:23.503Z,60.09
2023-02-22T11:38:58.567Z,60.62
2023-02-22T11:44:24.964Z,60.45
2023-02-22T11:49:47.401Z,60.39
2023-02-22T11:55:29.736Z,61.18
2023-02-22T12:01:17.319Z,61.45
2023-02-22T12:07:01.811Z,61.33
2023-02-22T12:12:44.685Z,61.34
2023-02-22T12:18:16.104Z,60.59
2023-02-22T12:23:53.253Z,60.36
2023-02-22T12:29:28.033Z,60.58
2023-02-22T12:34:58.244Z,59.25
2023-02-22T12:40:35.562Z,58.86
2023-02-22T12:46:06.780Z,58.71
2023-02-22T12:51:43.660Z,57.69
2023-02-22T12:57:17.821Z,57.77
2023-02-22T13:03:03.345Z,57.36
2023-02-22T13:08:37.562Z,57.31
2023-02-22T13:14:20.178Z,56.58
2023-02-22T13:19:59.278Z,56.18
2023-02-22T13:25:33.365Z,55.66
2023-02-22T13:31:15.516Z,55.49
2023-02-22T13:36:58.150Z,54.80
2023-02-22T13:42:25.123Z,54.85
2023-02-22T13:48:14.529Z,54.56
2023-02-22T13:53:46.967Z,54.94
2023-02-22T13:59:23.987Z,55.90
2023-02-22T14:04:45.709Z,56.90
2023-02-22T14:10:38.225Z,57.08
2023-02-22T14:16:00.032Z,56.74
2023-02-22T14:21:22.912Z,56.86
2023-02-22T14:27:04.908Z,56.38
2023-02-22T14:32:34.881Z,56.47
2023-02-22T14:37:59.486Z,55.79
2023-02-22T14:43:24.146Z,55.40
2023-02-22T14:48:49.215Z,56.29
2023-02-22T14:54:26.659Z,56.18
2023-02-22T14:59:59.977Z,56.45
2023-02-22T15:05:21.648Z,56.48
2023-02-22T15:10:48.628Z,56.88
2023-02-22T15:16:14.605Z,57.18
2023-02-22T15:21:36.493Z,56.71
2023-02-22T15:27:24.676Z,58.35
2023-02-22T15:33:02.493Z,58.27
2023-02-22T15:38:30.449Z,59.03
2023-02-22T15:44:21.304Z,59.08
2023-02-22T15:49:45.271Z,59.51
2023-02-22T15:55:10.931Z,60.25
2023-02-22T16:00:36.438Z,61.23
2023-02-22T16:05:59.237Z,61.47
2023-02-22T16:11:30.800Z,62.06
2023-02-22T16:17:30.806Z,62.23
2023-02-22T16:22:57.545Z,62.57
2023-02-22T16:28:33.855Z,63.01
2023-02-22T16:33:55.854Z,63.24
2023-02-22T16:39:27.074Z,63.58
2023-02-22T16:44:48.766Z,63.86
2023-02-22T16:50:11.563Z,64.68
2023-02-22T16:55:36.547Z,64.81
2023-02-22T17:00:58.353Z,64.84
2023-02-22T17:06:20.609Z,65.01
2023-02-22T17:11:42.735Z,66.27
2023-02-22T17:17:04.413Z,65.73
2023-02-22T17:22:26.092Z,67.05
2023-02-22T17:27:47.849Z,67.56
2023-02-22T17:33:15.932Z,67.51
2023-02-22T17:38:41.432Z,68.37
2023-02-22T17:44:04.661Z,68.62
2023-02-22T17:49:26.509Z,67.08
2023-02-22T17:54:48.193Z,65.86
2023-02-22T18:00:15.659Z,65.47
2023-02-22T18:05:43.456Z,64.43
2023-02-22T18:11:05.261Z,64.23
2023-02-22T18:16:27.577Z,64.42
2023-02-22T18:21:49.993Z,64.81
2023-02-22T18:27:11.880Z,64.56
2023-02-22T18:32:33.612Z,64.62
2023-02-22T18:37:55.358Z,65.14
2023-02-22T18:43:17.609Z,65.01
2023-02-22T18:48:39.750Z,64.97
2023-02-22T18:54:01.525Z,65.14
2023-02-22T18:59:23.286Z,64.94
2023-02-22T19:04:45.177Z,65.65
2023-02-22T19:10:07.487Z,65.90
2023-02-22T19:15:30.081Z,66.53
2023-02-22T19:20:59.586Z,66.55
2023-02-22T19:26:26.611Z,66.63
2023-02-22T19:31:51.208Z,66.61
2023-02-22T19:37:13.199Z,67.07
2023-02-22T19:42:37.699Z,67.36
2023-02-22T19:47:59.408Z,67.07
2023-02-22T19:53:21.199Z,67.37
2023-02-22T19:58:47.274Z,67.07
2023-02-22T20:04:11.318Z,68.18
2023-02-22T20:09:39.189Z,68.16
2023-02-22T20:15:01.009Z,68.24
2023-02-22T20:20:24.149Z,68.79
2023-02-22T20:25:54.125Z,68.03
2023-02-22T20:31:16.669Z,67.32
2023-02-22T20:36:41.401Z,68.39
2023-02-22T20:42:05.171Z,68.59
2023-02-22T20:47:27.042Z,68.52
2023-02-22T20:52:48.798Z,68.76
2023-02-22T20:58:10.616Z,69.36
2023-02-22T21:03:33.923Z,69.89
2023-02-22T21:08:57.973Z,70.39
2023-02-22T21:14:20.071Z,70.63
2023-02-22T21:19:42.522Z,70.95
2023-02-22T21:25:04.876Z,70.94
2023-02-22T21:30:27.712Z,70.90
2023-02-22T21:35:50.349Z,71.68
2023-02-22T21:41:17.703Z,71.84
2023-02-22T21:46:39.949Z,71.38
2023-02-22T21:52:01.766Z,72.30
2023-02-22T21:57:23.562Z,72.73
2023-02-22T22:02:47.909Z,72.50
2023-02-22T22:08:13.204Z,73.00
2023-02-22T22:13:37.600Z,72.99
2023-02-22T22:18:59.351Z,73.25
2023-02-22T22:24:22.797Z,72.96
2023-02-22T22:29:45.382Z,73.18
2023-02-22T22:35:14.395Z,73.76
2023-02-22T22:40:38.729Z,73.83
2023-02-22T22:46:01.727Z,74.70
2023-02-22T22:51:23.697Z,75.21
2023-02-22T22:56:46.382Z,75.24
2023-02-22T23:02:10.866Z,75.95
2023-02-22T23:07:34.414Z,75.67
2023-02-22T23:12:56.558Z,75.22
2023-02-22T23:18:20.424Z,75.05
2023-02-22T23:23:42.230Z,74.44
2023-02-22T23:29:04.242Z,74.21
2023-02-22T23:34:26.373Z,73.97
2023-02-22T23:39:48.491Z,74.84
2023-02-22T23:45:15.041Z,74.62
2023-02-22T23:50:36.709Z,73.95
2023-02-22T23:56:00.181Z,75.26
